ADDS METAR Data INFO
IDs: Format: Raw Decoded Include TAF

Data at: 0043 UTC 23 Oct 2017

METAR for:KPCM (Plant City Arpt, FL, US)
Text:KPCM 230035Z AUTO 11006KT 10SM SCT060 27/22 A3009 RMK AO2
Temperature: 27.0°C ( 81°F)
Dewpoint: 22.0°C ( 72°F) [RH = 74%]
Pressure (altimeter):30.09 inches Hg (1019.0 mb)
Winds:from the ESE (110 degrees) at 7 MPH (6 knots; 3.1 m/s)
Visibility:10 or more sm (16+ km)
Ceiling:at least 12,000 feet AGL
Clouds: scattered clouds at 6000 feet AGL
QC Flag:automated observation with no human augmentation